sensor_id;sensor_type;location;lat;lon;timestamp;P1;durP1;ratioP1;P2;durP2;ratioP2
20935;SDS011;10627;54.514;18.532;2023-04-25T00:02:28;1112.83;;;800.27;;
20935;SDS011;10627;54.514;18.532;2023-04-25T00:07:29;1113.90;;;810.83;;
20935;SDS011;10627;54.514;18.532;2023-04-25T00:12:29;1110.67;;;802.50;;
20935;SDS011;10627;54.514;18.532;2023-04-25T00:17:30;1110.33;;;799.43;;
20935;SDS011;10627;54.514;18.532;2023-04-25T00:22:32;1113.10;;;805.93;;
20935;SDS011;10627;54.514;18.532;2023-04-25T00:27:33;1105.80;;;793.27;;
20935;SDS011;10627;54.514;18.532;2023-04-25T00:32:34;1103.73;;;791.63;;
20935;SDS011;10627;54.514;18.532;2023-04-25T00:37:34;1112.37;;;799.30;;
20935;SDS011;10627;54.514;18.532;2023-04-25T00:42:35;1110.30;;;802.47;;
20935;SDS011;10627;54.514;18.532;2023-04-25T00:47:37;1105.10;;;793.67;;
20935;SDS011;10627;54.514;18.532;2023-04-25T00:52:38;1106.83;;;786.20;;
20935;SDS011;10627;54.514;18.532;2023-04-25T00:57:40;1067.65;;;740.50;;
20935;SDS011;10627;54.514;18.532;2023-04-25T01:02:41;1064.60;;;736.30;;
20935;SDS011;10627;54.514;18.532;2023-04-25T01:07:42;1073.20;;;747.50;;
20935;SDS011;10627;54.514;18.532;2023-04-25T01:12:43;1072.40;;;753.80;;
20935;SDS011;10627;54.514;18.532;2023-04-25T01:17:43;1080.67;;;765.43;;
20935;SDS011;10627;54.514;18.532;2023-04-25T01:22:44;1075.90;;;751.07;;
20935;SDS011;10627;54.514;18.532;2023-04-25T01:27:45;1076.20;;;751.77;;
20935;SDS011;10627;54.514;18.532;2023-04-25T01:32:46;1077.20;;;748.30;;
20935;SDS011;10627;54.514;18.532;2023-04-25T01:37:47;1078.13;;;744.30;;
20935;SDS011;10627;54.514;18.532;2023-04-25T01:42:49;1103.87;;;772.73;;
20935;SDS011;10627;54.514;18.532;2023-04-25T01:47:49;1086.53;;;747.67;;
20935;SDS011;10627;54.514;18.532;2023-04-25T01:52:50;1095.93;;;764.63;;
20935;SDS011;10627;54.514;18.532;2023-04-25T01:57:53;1088.00;;;750.10;;
20935;SDS011;10627;54.514;18.532;2023-04-25T02:02:59;1088.87;;;753.43;;
20935;SDS011;10627;54.514;18.532;2023-04-25T02:08:05;1090.13;;;755.70;;
20935;SDS011;10627;54.514;18.532;2023-04-25T02:13:06;1079.77;;;734.67;;
20935;SDS011;10627;54.514;18.532;2023-04-25T02:18:25;1088.83;;;746.53;;
20935;SDS011;10627;54.514;18.532;2023-04-25T02:23:26;1084.53;;;737.40;;
20935;SDS011;10627;54.514;18.532;2023-04-25T02:28:27;1084.60;;;743.57;;
20935;SDS011;10627;54.514;18.532;2023-04-25T02:33:27;1087.57;;;745.27;;
20935;SDS011;10627;54.514;18.532;2023-04-25T02:38:28;1089.07;;;743.80;;
20935;SDS011;10627;54.514;18.532;2023-04-25T02:43:30;1087.10;;;750.07;;
20935;SDS011;10627;54.514;18.532;2023-04-25T02:48:31;1086.70;;;742.37;;
20935;SDS011;10627;54.514;18.532;2023-04-25T02:53:31;1083.07;;;735.97;;
20935;SDS011;10627;54.514;18.532;2023-04-25T02:58:32;1087.63;;;744.73;;
20935;SDS011;10627;54.514;18.532;2023-04-25T03:03:32;1089.50;;;749.43;;
20935;SDS011;10627;54.514;18.532;2023-04-25T03:08:33;1082.00;;;734.57;;
20935;SDS011;10627;54.514;18.532;2023-04-25T03:13:36;1076.57;;;717.53;;
20935;SDS011;10627;54.514;18.532;2023-04-25T03:18:36;1085.53;;;742.43;;
20935;SDS011;10627;54.514;18.532;2023-04-25T03:23:37;1085.53;;;738.97;;
20935;SDS011;10627;54.514;18.532;2023-04-25T03:28:37;1091.43;;;747.70;;
20935;SDS011;10627;54.514;18.532;2023-04-25T03:33:41;1084.50;;;726.53;;
20935;SDS011;10627;54.514;18.532;2023-04-25T03:38:42;1083.57;;;724.50;;
20935;SDS011;10627;54.514;18.532;2023-04-25T03:43:46;1078.43;;;712.87;;
20935;SDS011;10627;54.514;18.532;2023-04-25T03:48:48;1077.50;;;703.80;;
20935;SDS011;10627;54.514;18.532;2023-04-25T03:53:55;1075.17;;;699.10;;
20935;SDS011;10627;54.514;18.532;2023-04-25T03:59:18;1067.93;;;678.03;;
20935;SDS011;10627;54.514;18.532;2023-04-25T04:04:19;1069.33;;;682.43;;
20935;SDS011;10627;54.514;18.532;2023-04-25T04:09:20;1068.03;;;685.40;;
20935;SDS011;10627;54.514;18.532;2023-04-25T04:14:21;1059.47;;;656.47;;
20935;SDS011;10627;54.514;18.532;2023-04-25T04:19:23;1059.50;;;664.90;;
20935;SDS011;10627;54.514;18.532;2023-04-25T04:24:33;1056.43;;;651.93;;
20935;SDS011;10627;54.514;18.532;2023-04-25T04:29:38;1054.60;;;655.03;;
20935;SDS011;10627;54.514;18.532;2023-04-25T04:34:50;1056.67;;;657.83;;
20935;SDS011;10627;54.514;18.532;2023-04-25T04:39:55;1049.27;;;640.83;;
20935;SDS011;10627;54.514;18.532;2023-04-25T04:45:04;1059.07;;;659.27;;
20935;SDS011;10627;54.514;18.532;2023-04-25T04:50:28;1059.87;;;661.70;;
20935;SDS011;10627;54.514;18.532;2023-04-25T04:55:45;1065.33;;;673.87;;
20935;SDS011;10627;54.514;18.532;2023-04-25T05:01:03;1059.80;;;656.57;;
20935;SDS011;10627;54.514;18.532;2023-04-25T05:06:06;1061.67;;;676.13;;
20935;SDS011;10627;54.514;18.532;2023-04-25T05:11:18;1075.87;;;704.30;;
20935;SDS011;10627;54.514;18.532;2023-04-25T05:16:40;1070.63;;;696.67;;
20935;SDS011;10627;54.514;18.532;2023-04-25T05:22:06;1079.63;;;722.50;;
20935;SDS011;10627;54.514;18.532;2023-04-25T05:27:27;1076.17;;;709.70;;
20935;SDS011;10627;54.514;18.532;2023-04-25T05:32:33;1075.03;;;714.17;;
20935;SDS011;10627;54.514;18.532;2023-04-25T05:37:34;1079.53;;;720.40;;
20935;SDS011;10627;54.514;18.532;2023-04-25T05:42:44;1085.23;;;737.53;;
20935;SDS011;10627;54.514;18.532;2023-04-25T05:47:57;1084.70;;;736.50;;
20935;SDS011;10627;54.514;18.532;2023-04-25T05:53:17;1080.80;;;731.70;;
20935;SDS011;10627;54.514;18.532;2023-04-25T05:58:18;1085.20;;;741.43;;
20935;SDS011;10627;54.514;18.532;2023-04-25T06:03:18;1086.50;;;746.87;;
20935;SDS011;10627;54.514;18.532;2023-04-25T06:08:19;1095.87;;;758.10;;
20935;SDS011;10627;54.514;18.532;2023-04-25T06:13:20;1083.90;;;739.53;;
20935;SDS011;10627;54.514;18.532;2023-04-25T06:18:20;1084.63;;;737.20;;
20935;SDS011;10627;54.514;18.532;2023-04-25T06:23:21;1086.03;;;746.70;;
20935;SDS011;10627;54.514;18.532;2023-04-25T06:28:36;1083.17;;;731.03;;
20935;SDS011;10627;54.514;18.532;2023-04-25T06:33:36;1205.22;;;965.30;;
20935;SDS011;10627;54.514;18.532;2023-04-25T06:38:38;1095.20;;;755.27;;
20935;SDS011;10627;54.514;18.532;2023-04-25T06:43:39;1085.97;;;730.40;;
20935;SDS011;10627;54.514;18.532;2023-04-25T06:49:03;1087.20;;;742.80;;
20935;SDS011;10627;54.514;18.532;2023-04-25T06:54:04;1087.70;;;744.70;;
20935;SDS011;10627;54.514;18.532;2023-04-25T06:59:14;1088.87;;;749.00;;
20935;SDS011;10627;54.514;18.532;2023-04-25T07:04:23;5.82;;;2.83;;
20935;SDS011;10627;54.514;18.532;2023-04-25T07:09:36;5.20;;;2.73;;
20935;SDS011;10627;54.514;18.532;2023-04-25T07:14:54;4.60;;;2.80;;
20935;SDS011;10627;54.514;18.532;2023-04-25T07:19:59;5.47;;;2.50;;
20935;SDS011;10627;54.514;18.532;2023-04-25T07:25:02;8.47;;;3.10;;
20935;SDS011;10627;54.514;18.532;2023-04-25T07:30:06;2.73;;;2.10;;
20935;SDS011;10627;54.514;18.532;2023-04-25T07:35:07;4.73;;;2.47;;
20935;SDS011;10627;54.514;18.532;2023-04-25T07:40:08;3.40;;;2.60;;
20935;SDS011;10627;54.514;18.532;2023-04-25T07:45:11;5.13;;;2.60;;
20935;SDS011;10627;54.514;18.532;2023-04-25T07:50:14;3.03;;;2.73;;
20935;SDS011;10627;54.514;18.532;2023-04-25T07:55:14;8.23;;;3.53;;
20935;SDS011;10627;54.514;18.532;2023-04-25T08:00:25;2.17;;;1.98;;
20935;SDS011;10627;54.514;18.532;2023-04-25T08:05:43;3.50;;;2.10;;
20935;SDS011;10627;54.514;18.532;2023-04-25T08:10:44;2.63;;;2.38;;
20935;SDS011;10627;54.514;18.532;2023-04-25T08:15:46;3.30;;;2.50;;
20935;SDS011;10627;54.514;18.532;2023-04-25T08:20:47;4.07;;;2.17;;
20935;SDS011;10627;54.514;18.532;2023-04-25T08:25:49;1.40;;;1.25;;
20935;SDS011;10627;54.514;18.532;2023-04-25T08:30:53;4.00;;;2.13;;
20935;SDS011;10627;54.514;18.532;2023-04-25T08:35:55;1.70;;;1.53;;
20935;SDS011;10627;54.514;18.532;2023-04-25T08:40:57;3.37;;;2.00;;
20935;SDS011;10627;54.514;18.532;2023-04-25T08:46:00;3.73;;;2.43;;
20935;SDS011;10627;54.514;18.532;2023-04-25T08:51:23;3.13;;;1.50;;
20935;SDS011;10627;54.514;18.532;2023-04-25T08:56:28;3.10;;;1.73;;
20935;SDS011;10627;54.514;18.532;2023-04-25T09:01:29;3.13;;;1.67;;
20935;SDS011;10627;54.514;18.532;2023-04-25T09:06:31;3.17;;;1.90;;
20935;SDS011;10627;54.514;18.532;2023-04-25T09:11:33;4.65;;;1.63;;
20935;SDS011;10627;54.514;18.532;2023-04-25T09:22:10;7.82;;;4.40;;
20935;SDS011;10627;54.514;18.532;2023-04-25T09:27:12;6.82;;;2.97;;
20935;SDS011;10627;54.514;18.532;2023-04-25T09:32:20;5.13;;;2.30;;
20935;SDS011;10627;54.514;18.532;2023-04-25T09:37:28;3.25;;;2.33;;
20935;SDS011;10627;54.514;18.532;2023-04-25T09:42:47;4.25;;;2.05;;
20935;SDS011;10627;54.514;18.532;2023-04-25T09:47:48;2.88;;;2.08;;
20935;SDS011;10627;54.514;18.532;2023-04-25T09:53:02;1.50;;;1.40;;
20935;SDS011;10627;54.514;18.532;2023-04-25T09:58:06;5.00;;;1.90;;
20935;SDS011;10627;54.514;18.532;2023-04-25T10:03:08;5.68;;;1.83;;
20935;SDS011;10627;54.514;18.532;2023-04-25T10:08:34;3.00;;;1.55;;
20935;SDS011;10627;54.514;18.532;2023-04-25T10:13:35;2.92;;;1.70;;
20935;SDS011;10627;54.514;18.532;2023-04-25T10:18:35;4.35;;;1.73;;
20935;SDS011;10627;54.514;18.532;2023-04-25T10:23:37;3.33;;;1.50;;
20935;SDS011;10627;54.514;18.532;2023-04-25T10:28:57;2.42;;;1.40;;
20935;SDS011;10627;54.514;18.532;2023-04-25T10:34:01;4.55;;;3.08;;
20935;SDS011;10627;54.514;18.532;2023-04-25T10:39:03;5.30;;;3.58;;
20935;SDS011;10627;54.514;18.532;2023-04-25T10:44:07;2.67;;;1.93;;
20935;SDS011;10627;54.514;18.532;2023-04-25T10:49:08;5.40;;;2.43;;
20935;SDS011;10627;54.514;18.532;2023-04-25T10:54:10;6.18;;;1.70;;
20935;SDS011;10627;54.514;18.532;2023-04-25T10:59:13;2.75;;;1.70;;
20935;SDS011;10627;54.514;18.532;2023-04-25T11:04:20;4.50;;;3.35;;
20935;SDS011;10627;54.514;18.532;2023-04-25T11:09:23;6.20;;;2.40;;
20935;SDS011;10627;54.514;18.532;2023-04-25T11:14:24;4.30;;;2.22;;
20935;SDS011;10627;54.514;18.532;2023-04-25T11:19:25;6.00;;;3.53;;
20935;SDS011;10627;54.514;18.532;2023-04-25T11:24:29;4.28;;;2.58;;
20935;SDS011;10627;54.514;18.532;2023-04-25T11:29:31;6.10;;;2.17;;
20935;SDS011;10627;54.514;18.532;2023-04-25T11:34:32;6.50;;;2.35;;
20935;SDS011;10627;54.514;18.532;2023-04-25T11:39:34;3.43;;;2.10;;
20935;SDS011;10627;54.514;18.532;2023-04-25T11:44:37;2.00;;;1.80;;
20935;SDS011;10627;54.514;18.532;2023-04-25T11:49:37;2.50;;;1.63;;
20935;SDS011;10627;54.514;18.532;2023-04-25T11:54:38;4.85;;;1.60;;
20935;SDS011;10627;54.514;18.532;2023-04-25T11:59:38;5.97;;;1.93;;
20935;SDS011;10627;54.514;18.532;2023-04-25T12:04:39;3.83;;;1.63;;
20935;SDS011;10627;54.514;18.532;2023-04-25T12:09:41;2.83;;;1.70;;
20935;SDS011;10627;54.514;18.532;2023-04-25T12:14:45;4.07;;;2.43;;
20935;SDS011;10627;54.514;18.532;2023-04-25T12:19:47;4.73;;;2.43;;
20935;SDS011;10627;54.514;18.532;2023-04-25T12:24:48;9.43;;;3.50;;
20935;SDS011;10627;54.514;18.532;2023-04-25T12:29:52;6.47;;;3.30;;
20935;SDS011;10627;54.514;18.532;2023-04-25T12:34:53;7.07;;;3.20;;
20935;SDS011;10627;54.514;18.532;2023-04-25T12:39:54;7.57;;;3.20;;
20935;SDS011;10627;54.514;18.532;2023-04-25T12:44:54;7.30;;;3.20;;
20935;SDS011;10627;54.514;18.532;2023-04-25T12:49:55;5.17;;;3.40;;
20935;SDS011;10627;54.514;18.532;2023-04-25T12:54:55;5.67;;;3.70;;
20935;SDS011;10627;54.514;18.532;2023-04-25T12:59:56;6.40;;;3.60;;
20935;SDS011;10627;54.514;18.532;2023-04-25T13:04:57;7.47;;;3.83;;
20935;SDS011;10627;54.514;18.532;2023-04-25T13:09:58;6.13;;;3.67;;
20935;SDS011;10627;54.514;18.532;2023-04-25T13:14:59;8.80;;;4.00;;
20935;SDS011;10627;54.514;18.532;2023-04-25T13:20:00;7.50;;;3.77;;
20935;SDS011;10627;54.514;18.532;2023-04-25T13:25:00;6.80;;;4.20;;
20935;SDS011;10627;54.514;18.532;2023-04-25T13:30:01;6.67;;;3.80;;
20935;SDS011;10627;54.514;18.532;2023-04-25T13:35:08;6.45;;;3.75;;
20935;SDS011;10627;54.514;18.532;2023-04-25T13:40:09;5.47;;;3.70;;
20935;SDS011;10627;54.514;18.532;2023-04-25T13:45:11;4.95;;;4.10;;
20935;SDS011;10627;54.514;18.532;2023-04-25T13:50:12;6.00;;;3.28;;
20935;SDS011;10627;54.514;18.532;2023-04-25T13:55:14;6.03;;;3.30;;
20935;SDS011;10627;54.514;18.532;2023-04-25T14:00:14;7.00;;;3.83;;
20935;SDS011;10627;54.514;18.532;2023-04-25T14:05:15;7.07;;;4.73;;
20935;SDS011;10627;54.514;18.532;2023-04-25T14:10:16;9.23;;;4.37;;
20935;SDS011;10627;54.514;18.532;2023-04-25T14:15:17;7.53;;;4.43;;
20935;SDS011;10627;54.514;18.532;2023-04-25T14:20:17;15.63;;;4.00;;
20935;SDS011;10627;54.514;18.532;2023-04-25T14:25:20;6.73;;;4.70;;
20935;SDS011;10627;54.514;18.532;2023-04-25T14:30:21;12.67;;;4.03;;
20935;SDS011;10627;54.514;18.532;2023-04-25T14:35:22;8.53;;;2.80;;
20935;SDS011;10627;54.514;18.532;2023-04-25T14:40:22;6.33;;;2.80;;
20935;SDS011;10627;54.514;18.532;2023-04-25T14:45:23;7.67;;;2.87;;
20935;SDS011;10627;54.514;18.532;2023-04-25T14:50:24;8.47;;;2.77;;
20935;SDS011;10627;54.514;18.532;2023-04-25T14:55:25;11.07;;;2.30;;
20935;SDS011;10627;54.514;18.532;2023-04-25T15:00:25;11.23;;;2.43;;
20935;SDS011;10627;54.514;18.532;2023-04-25T15:05:27;8.83;;;3.00;;
20935;SDS011;10627;54.514;18.532;2023-04-25T15:10:28;9.07;;;2.77;;
20935;SDS011;10627;54.514;18.532;2023-04-25T15:15:28;9.10;;;3.30;;
20935;SDS011;10627;54.514;18.532;2023-04-25T15:20:29;9.03;;;2.90;;
20935;SDS011;10627;54.514;18.532;2023-04-25T15:25:29;11.33;;;3.33;;
20935;SDS011;10627;54.514;18.532;2023-04-25T15:30:30;8.93;;;3.40;;
20935;SDS011;10627;54.514;18.532;2023-04-25T15:35:31;8.83;;;4.10;;
20935;SDS011;10627;54.514;18.532;2023-04-25T15:40:31;13.73;;;3.10;;
20935;SDS011;10627;54.514;18.532;2023-04-25T15:45:32;16.17;;;3.73;;
20935;SDS011;10627;54.514;18.532;2023-04-25T15:50:33;12.53;;;4.50;;
20935;SDS011;10627;54.514;18.532;2023-04-25T15:55:35;11.13;;;3.70;;
20935;SDS011;10627;54.514;18.532;2023-04-25T16:00:36;8.47;;;2.97;;
20935;SDS011;10627;54.514;18.532;2023-04-25T16:05:38;10.07;;;3.43;;
20935;SDS011;10627;54.514;18.532;2023-04-25T16:10:42;15.53;;;4.70;;
20935;SDS011;10627;54.514;18.532;2023-04-25T16:15:42;10.50;;;3.23;;
20935;SDS011;10627;54.514;18.532;2023-04-25T16:20:43;14.30;;;3.70;;
20935;SDS011;10627;54.514;18.532;2023-04-25T16:25:44;12.17;;;3.17;;
20935;SDS011;10627;54.514;18.532;2023-04-25T16:30:45;15.23;;;3.53;;
20935;SDS011;10627;54.514;18.532;2023-04-25T16:35:46;13.53;;;4.23;;
20935;SDS011;10627;54.514;18.532;2023-04-25T16:40:49;13.10;;;3.73;;
20935;SDS011;10627;54.514;18.532;2023-04-25T16:45:49;14.73;;;3.27;;
20935;SDS011;10627;54.514;18.532;2023-04-25T16:50:50;14.83;;;4.20;;
20935;SDS011;10627;54.514;18.532;2023-04-25T16:55:52;11.13;;;3.27;;
20935;SDS011;10627;54.514;18.532;2023-04-25T17:00:52;8.43;;;3.20;;
20935;SDS011;10627;54.514;18.532;2023-04-25T17:05:54;14.33;;;3.40;;
20935;SDS011;10627;54.514;18.532;2023-04-25T17:11:00;12.63;;;2.90;;
20935;SDS011;10627;54.514;18.532;2023-04-25T17:16:01;12.47;;;2.83;;
20935;SDS011;10627;54.514;18.532;2023-04-25T17:21:02;12.63;;;3.10;;
20935;SDS011;10627;54.514;18.532;2023-04-25T17:26:03;15.33;;;3.77;;
20935;SDS011;10627;54.514;18.532;2023-04-25T17:31:04;12.53;;;3.10;;
20935;SDS011;10627;54.514;18.532;2023-04-25T17:36:05;14.23;;;3.33;;
20935;SDS011;10627;54.514;18.532;2023-04-25T17:41:07;13.23;;;3.87;;
20935;SDS011;10627;54.514;18.532;2023-04-25T17:46:08;10.20;;;2.73;;
20935;SDS011;10627;54.514;18.532;2023-04-25T17:51:09;9.97;;;3.20;;
20935;SDS011;10627;54.514;18.532;2023-04-25T17:56:10;8.67;;;2.83;;
20935;SDS011;10627;54.514;18.532;2023-04-25T18:01:10;9.50;;;2.43;;
20935;SDS011;10627;54.514;18.532;2023-04-25T18:06:11;18.13;;;3.50;;
20935;SDS011;10627;54.514;18.532;2023-04-25T18:11:12;14.40;;;3.07;;
20935;SDS011;10627;54.514;18.532;2023-04-25T18:16:12;8.23;;;3.07;;
20935;SDS011;10627;54.514;18.532;2023-04-25T18:21:13;10.70;;;3.00;;
20935;SDS011;10627;54.514;18.532;2023-04-25T18:26:13;12.27;;;3.00;;
20935;SDS011;10627;54.514;18.532;2023-04-25T18:31:15;9.70;;;2.33;;
20935;SDS011;10627;54.514;18.532;2023-04-25T18:36:16;17.63;;;3.30;;
20935;SDS011;10627;54.514;18.532;2023-04-25T18:41:17;14.53;;;3.53;;
20935;SDS011;10627;54.514;18.532;2023-04-25T18:46:17;11.20;;;2.80;;
20935;SDS011;10627;54.514;18.532;2023-04-25T18:51:21;10.07;;;2.53;;
20935;SDS011;10627;54.514;18.532;2023-04-25T18:56:28;11.40;;;3.37;;
20935;SDS011;10627;54.514;18.532;2023-04-25T19:01:29;18.43;;;2.97;;
20935;SDS011;10627;54.514;18.532;2023-04-25T19:06:30;10.40;;;2.80;;
20935;SDS011;10627;54.514;18.532;2023-04-25T19:11:32;10.83;;;2.63;;
20935;SDS011;10627;54.514;18.532;2023-04-25T19:16:32;15.40;;;2.73;;
20935;SDS011;10627;54.514;18.532;2023-04-25T19:21:38;9.67;;;3.40;;
20935;SDS011;10627;54.514;18.532;2023-04-25T19:26:39;13.07;;;3.90;;
20935;SDS011;10627;54.514;18.532;2023-04-25T19:31:40;11.33;;;2.43;;
20935;SDS011;10627;54.514;18.532;2023-04-25T19:36:41;13.37;;;2.87;;
20935;SDS011;10627;54.514;18.532;2023-04-25T19:41:43;10.53;;;3.10;;
20935;SDS011;10627;54.514;18.532;2023-04-25T19:46:43;15.93;;;3.33;;
20935;SDS011;10627;54.514;18.532;2023-04-25T19:51:45;8.03;;;2.63;;
20935;SDS011;10627;54.514;18.532;2023-04-25T19:56:46;12.13;;;2.77;;
20935;SDS011;10627;54.514;18.532;2023-04-25T20:01:47;13.20;;;4.67;;
20935;SDS011;10627;54.514;18.532;2023-04-25T20:06:48;14.80;;;3.70;;
20935;SDS011;10627;54.514;18.532;2023-04-25T20:11:49;13.23;;;4.50;;
20935;SDS011;10627;54.514;18.532;2023-04-25T20:16:49;15.57;;;4.33;;
20935;SDS011;10627;54.514;18.532;2023-04-25T20:21:50;8.27;;;2.87;;
20935;SDS011;10627;54.514;18.532;2023-04-25T20:26:50;9.67;;;2.57;;
20935;SDS011;10627;54.514;18.532;2023-04-25T20:31:51;14.60;;;3.37;;
20935;SDS011;10627;54.514;18.532;2023-04-25T20:36:52;12.40;;;3.93;;
20935;SDS011;10627;54.514;18.532;2023-04-25T20:41:52;9.53;;;3.17;;
20935;SDS011;10627;54.514;18.532;2023-04-25T20:46:54;7.50;;;3.27;;
20935;SDS011;10627;54.514;18.532;2023-04-25T20:51:55;11.20;;;3.23;;
20935;SDS011;10627;54.514;18.532;2023-04-25T20:56:56;11.43;;;3.47;;
20935;SDS011;10627;54.514;18.532;2023-04-25T21:01:57;10.50;;;3.03;;
20935;SDS011;10627;54.514;18.532;2023-04-25T21:06:58;9.97;;;3.03;;
20935;SDS011;10627;54.514;18.532;2023-04-25T21:11:59;10.97;;;2.70;;
20935;SDS011;10627;54.514;18.532;2023-04-25T21:17:00;14.90;;;3.57;;
20935;SDS011;10627;54.514;18.532;2023-04-25T21:22:01;11.93;;;3.03;;
20935;SDS011;10627;54.514;18.532;2023-04-25T21:27:02;7.10;;;2.73;;
20935;SDS011;10627;54.514;18.532;2023-04-25T21:32:03;8.47;;;2.93;;
20935;SDS011;10627;54.514;18.532;2023-04-25T21:37:04;8.90;;;3.00;;
20935;SDS011;10627;54.514;18.532;2023-04-25T21:42:05;7.20;;;2.57;;
20935;SDS011;10627;54.514;18.532;2023-04-25T21:47:08;7.67;;;2.20;;
20935;SDS011;10627;54.514;18.532;2023-04-25T21:52:08;11.80;;;3.43;;
20935;SDS011;10627;54.514;18.532;2023-04-25T21:57:09;7.43;;;2.53;;
20935;SDS011;10627;54.514;18.532;2023-04-25T22:02:10;9.80;;;3.00;;
20935;SDS011;10627;54.514;18.532;2023-04-25T22:07:11;13.40;;;3.00;;
20935;SDS011;10627;54.514;18.532;2023-04-25T22:12:11;6.93;;;2.10;;
20935;SDS011;10627;54.514;18.532;2023-04-25T22:17:12;13.63;;;2.20;;
20935;SDS011;10627;54.514;18.532;2023-04-25T22:22:13;8.47;;;2.60;;
20935;SDS011;10627;54.514;18.532;2023-04-25T22:27:14;16.67;;;2.50;;
20935;SDS011;10627;54.514;18.532;2023-04-25T22:32:15;14.27;;;3.93;;
20935;SDS011;10627;54.514;18.532;2023-04-25T22:37:15;6.73;;;2.50;;
20935;SDS011;10627;54.514;18.532;2023-04-25T22:42:16;15.13;;;3.20;;
20935;SDS011;10627;54.514;18.532;2023-04-25T22:47:17;10.83;;;2.90;;
20935;SDS011;10627;54.514;18.532;2023-04-25T22:52:17;9.87;;;3.33;;
20935;SDS011;10627;54.514;18.532;2023-04-25T22:57:18;10.97;;;2.70;;
20935;SDS011;10627;54.514;18.532;2023-04-25T23:02:21;17.37;;;2.73;;
20935;SDS011;10627;54.514;18.532;2023-04-25T23:07:21;6.73;;;2.73;;
20935;SDS011;10627;54.514;18.532;2023-04-25T23:12:22;14.27;;;3.17;;
20935;SDS011;10627;54.514;18.532;2023-04-25T23:17:23;7.93;;;2.27;;
20935;SDS011;10627;54.514;18.532;2023-04-25T23:22:23;6.53;;;2.37;;
20935;SDS011;10627;54.514;18.532;2023-04-25T23:27:24;8.20;;;2.50;;
20935;SDS011;10627;54.514;18.532;2023-04-25T23:32:24;11.73;;;2.57;;
20935;SDS011;10627;54.514;18.532;2023-04-25T23:37:25;9.23;;;2.50;;
20935;SDS011;10627;54.514;18.532;2023-04-25T23:42:25;12.33;;;2.43;;
20935;SDS011;10627;54.514;18.532;2023-04-25T23:47:26;5.50;;;2.07;;
20935;SDS011;10627;54.514;18.532;2023-04-25T23:52:26;14.03;;;2.90;;
20935;SDS011;10627;54.514;18.532;2023-04-25T23:57:27;14.23;;;2.70;;
